sensor_id;sensor_type;location;lat;lon;timestamp;temperature;humidity
52531;DHT22;38441;52.894;6.040;2023-06-10T00:01:36;19.80;99.90
52531;DHT22;38441;52.894;6.040;2023-06-10T00:04:02;19.80;99.90
52531;DHT22;38441;52.894;6.040;2023-06-10T00:06:28;20.00;99.90
52531;DHT22;38441;52.894;6.040;2023-06-10T00:09:04;19.10;99.90
52531;DHT22;38441;52.894;6.040;2023-06-10T00:11:31;17.50;99.90
52531;DHT22;38441;52.894;6.040;2023-06-10T00:13:57;19.20;99.90
52531;DHT22;38441;52.894;6.040;2023-06-10T00:16:22;20.30;99.90
52531;DHT22;38441;52.894;6.040;2023-06-10T00:18:49;18.10;99.90
52531;DHT22;38441;52.894;6.040;2023-06-10T00:21:17;19.30;99.90
52531;DHT22;38441;52.894;6.040;2023-06-10T00:23:42;16.90;99.90
52531;DHT22;38441;52.894;6.040;2023-06-10T00:26:09;16.90;99.90
52531;DHT22;38441;52.894;6.040;2023-06-10T00:28:34;18.90;99.90
52531;DHT22;38441;52.894;6.040;2023-06-10T00:31:00;18.00;99.90
52531;DHT22;38441;52.894;6.040;2023-06-10T00:33:25;19.20;99.90
52531;DHT22;38441;52.894;6.040;2023-06-10T00:35:51;17.90;99.90
52531;DHT22;38441;52.894;6.040;2023-06-10T00:38:17;16.40;99.90
52531;DHT22;38441;52.894;6.040;2023-06-10T00:40:42;16.70;99.90
52531;DHT22;38441;52.894;6.040;2023-06-10T00:43:08;19.10;99.90
52531;DHT22;38441;52.894;6.040;2023-06-10T00:45:34;18.50;99.90
52531;DHT22;38441;52.894;6.040;2023-06-10T00:48:01;19.30;99.90
52531;DHT22;38441;52.894;6.040;2023-06-10T00:50:27;19.30;99.90
52531;DHT22;38441;52.894;6.040;2023-06-10T00:52:54;19.10;99.90
52531;DHT22;38441;52.894;6.040;2023-06-10T00:55:20;19.00;99.90
52531;DHT22;38441;52.894;6.040;2023-06-10T00:57:46;18.80;99.90
52531;DHT22;38441;52.894;6.040;2023-06-10T01:00:14;18.60;99.90
52531;DHT22;38441;52.894;6.040;2023-06-10T01:02:41;17.20;99.90
52531;DHT22;38441;52.894;6.040;2023-06-10T01:05:08;19.20;99.90
52531;DHT22;38441;52.894;6.040;2023-06-10T01:10:24;17.00;99.90
52531;DHT22;38441;52.894;6.040;2023-06-10T01:13:00;16.90;99.90
52531;DHT22;38441;52.894;6.040;2023-06-10T01:15:33;16.80;99.90
52531;DHT22;38441;52.894;6.040;2023-06-10T01:18:01;15.60;99.90
52531;DHT22;38441;52.894;6.040;2023-06-10T01:20:28;15.60;99.90
52531;DHT22;38441;52.894;6.040;2023-06-10T01:22:54;17.70;99.90
52531;DHT22;38441;52.894;6.040;2023-06-10T01:25:23;16.00;99.90
52531;DHT22;38441;52.894;6.040;2023-06-10T01:28:15;20.00;99.90
52531;DHT22;38441;52.894;6.040;2023-06-10T01:31:06;16.90;99.90
52531;DHT22;38441;52.894;6.040;2023-06-10T01:33:37;16.80;99.90
52531;DHT22;38441;52.894;6.040;2023-06-10T01:36:04;19.40;99.90
52531;DHT22;38441;52.894;6.040;2023-06-10T01:38:33;16.70;99.90
52531;DHT22;38441;52.894;6.040;2023-06-10T01:41:01;16.20;99.90
52531;DHT22;38441;52.894;6.040;2023-06-10T01:43:28;17.50;99.90
52531;DHT22;38441;52.894;6.040;2023-06-10T01:45:54;19.40;99.90
52531;DHT22;38441;52.894;6.040;2023-06-10T01:48:19;18.10;99.90
52531;DHT22;38441;52.894;6.040;2023-06-10T01:50:45;16.50;99.90
52531;DHT22;38441;52.894;6.040;2023-06-10T01:53:11;16.50;99.90
52531;DHT22;38441;52.894;6.040;2023-06-10T01:55:36;18.50;99.90
52531;DHT22;38441;52.894;6.040;2023-06-10T01:58:02;17.80;99.90
52531;DHT22;38441;52.894;6.040;2023-06-10T02:00:28;15.70;99.90
52531;DHT22;38441;52.894;6.040;2023-06-10T02:02:53;19.10;99.90
52531;DHT22;38441;52.894;6.040;2023-06-10T02:05:19;18.90;99.90
52531;DHT22;38441;52.894;6.040;2023-06-10T02:07:44;18.10;99.90
52531;DHT22;38441;52.894;6.040;2023-06-10T02:10:10;17.70;99.90
52531;DHT22;38441;52.894;6.040;2023-06-10T02:12:36;16.00;99.90
52531;DHT22;38441;52.894;6.040;2023-06-10T02:15:01;18.50;99.90
52531;DHT22;38441;52.894;6.040;2023-06-10T02:17:27;17.30;99.90
52531;DHT22;38441;52.894;6.040;2023-06-10T02:19:53;18.10;99.90
52531;DHT22;38441;52.894;6.040;2023-06-10T02:22:23;18.20;99.90
52531;DHT22;38441;52.894;6.040;2023-06-10T02:24:49;16.90;99.90
52531;DHT22;38441;52.894;6.040;2023-06-10T02:27:15;17.20;99.90
52531;DHT22;38441;52.894;6.040;2023-06-10T02:29:41;17.70;99.90
52531;DHT22;38441;52.894;6.040;2023-06-10T02:32:07;18.00;99.90
52531;DHT22;38441;52.894;6.040;2023-06-10T02:34:33;16.30;99.90
52531;DHT22;38441;52.894;6.040;2023-06-10T02:36:59;14.90;99.90
52531;DHT22;38441;52.894;6.040;2023-06-10T02:39:24;16.40;99.90
52531;DHT22;38441;52.894;6.040;2023-06-10T02:41:50;15.10;99.90
52531;DHT22;38441;52.894;6.040;2023-06-10T02:44:18;15.10;99.90
52531;DHT22;38441;52.894;6.040;2023-06-10T02:46:43;15.10;99.90
52531;DHT22;38441;52.894;6.040;2023-06-10T02:49:09;18.30;99.90
52531;DHT22;38441;52.894;6.040;2023-06-10T02:51:34;15.00;99.90
52531;DHT22;38441;52.894;6.040;2023-06-10T02:54:01;16.70;99.90
52531;DHT22;38441;52.894;6.040;2023-06-10T02:56:27;17.50;99.90
52531;DHT22;38441;52.894;6.040;2023-06-10T02:58:53;15.70;99.90
52531;DHT22;38441;52.894;6.040;2023-06-10T03:01:18;18.30;99.90
52531;DHT22;38441;52.894;6.040;2023-06-10T03:03:44;17.30;99.90
52531;DHT22;38441;52.894;6.040;2023-06-10T03:06:12;17.20;99.90
52531;DHT22;38441;52.894;6.040;2023-06-10T03:08:38;17.30;99.90
52531;DHT22;38441;52.894;6.040;2023-06-10T03:11:04;14.80;99.90
52531;DHT22;38441;52.894;6.040;2023-06-10T03:13:30;17.40;99.90
52531;DHT22;38441;52.894;6.040;2023-06-10T03:15:55;16.70;99.90
52531;DHT22;38441;52.894;6.040;2023-06-10T03:18:25;15.00;99.90
52531;DHT22;38441;52.894;6.040;2023-06-10T03:20:51;15.20;99.90
52531;DHT22;38441;52.894;6.040;2023-06-10T03:23:17;16.50;99.90
52531;DHT22;38441;52.894;6.040;2023-06-10T03:25:44;17.00;99.90
52531;DHT22;38441;52.894;6.040;2023-06-10T03:28:09;15.20;99.90
52531;DHT22;38441;52.894;6.040;2023-06-10T03:30:35;16.70;99.90
52531;DHT22;38441;52.894;6.040;2023-06-10T03:33:01;17.10;99.90
52531;DHT22;38441;52.894;6.040;2023-06-10T03:35:26;17.50;99.90
52531;DHT22;38441;52.894;6.040;2023-06-10T03:37:52;16.50;99.90
52531;DHT22;38441;52.894;6.040;2023-06-10T03:40:18;17.00;99.90
52531;DHT22;38441;52.894;6.040;2023-06-10T03:42:43;14.40;99.90
52531;DHT22;38441;52.894;6.040;2023-06-10T03:45:09;16.60;99.90
52531;DHT22;38441;52.894;6.040;2023-06-10T03:47:36;15.30;99.90
52531;DHT22;38441;52.894;6.040;2023-06-10T03:50:03;17.10;99.90
52531;DHT22;38441;52.894;6.040;2023-06-10T03:52:29;15.20;99.90
52531;DHT22;38441;52.894;6.040;2023-06-10T03:54:55;16.60;99.90
52531;DHT22;38441;52.894;6.040;2023-06-10T03:57:20;14.90;99.90
52531;DHT22;38441;52.894;6.040;2023-06-10T03:59:46;14.90;99.90
52531;DHT22;38441;52.894;6.040;2023-06-10T04:02:11;14.30;99.90
52531;DHT22;38441;52.894;6.040;2023-06-10T04:04:37;17.00;99.90
52531;DHT22;38441;52.894;6.040;2023-06-10T04:07:06;17.00;99.90
52531;DHT22;38441;52.894;6.040;2023-06-10T04:09:33;15.20;99.90
52531;DHT22;38441;52.894;6.040;2023-06-10T04:11:59;17.10;99.90
52531;DHT22;38441;52.894;6.040;2023-06-10T04:14:24;17.20;99.90
52531;DHT22;38441;52.894;6.040;2023-06-10T04:16:50;16.40;99.90
52531;DHT22;38441;52.894;6.040;2023-06-10T04:19:16;17.00;99.90
52531;DHT22;38441;52.894;6.040;2023-06-10T04:21:42;15.80;99.90
52531;DHT22;38441;52.894;6.040;2023-06-10T04:24:08;14.20;99.90
52531;DHT22;38441;52.894;6.040;2023-06-10T04:26:35;16.60;99.90
52531;DHT22;38441;52.894;6.040;2023-06-10T04:29:01;16.30;99.90
52531;DHT22;38441;52.894;6.040;2023-06-10T04:31:26;17.20;99.90
52531;DHT22;38441;52.894;6.040;2023-06-10T04:33:53;16.50;99.90
52531;DHT22;38441;52.894;6.040;2023-06-10T04:36:19;16.90;99.90
52531;DHT22;38441;52.894;6.040;2023-06-10T04:38:44;17.90;99.90
52531;DHT22;38441;52.894;6.040;2023-06-10T04:41:11;17.30;99.90
52531;DHT22;38441;52.894;6.040;2023-06-10T04:43:36;16.40;99.90
52531;DHT22;38441;52.894;6.040;2023-06-10T04:46:02;16.80;99.90
52531;DHT22;38441;52.894;6.040;2023-06-10T04:48:28;17.00;99.90
52531;DHT22;38441;52.894;6.040;2023-06-10T04:50:53;16.20;99.90
52531;DHT22;38441;52.894;6.040;2023-06-10T04:53:19;16.90;99.90
52531;DHT22;38441;52.894;6.040;2023-06-10T04:55:46;16.70;99.90
52531;DHT22;38441;52.894;6.040;2023-06-10T04:58:11;14.80;99.90
52531;DHT22;38441;52.894;6.040;2023-06-10T05:00:37;17.00;99.90
52531;DHT22;38441;52.894;6.040;2023-06-10T05:03:02;14.50;99.90
52531;DHT22;38441;52.894;6.040;2023-06-10T05:05:28;15.40;99.90
52531;DHT22;38441;52.894;6.040;2023-06-10T05:07:54;17.90;99.90
52531;DHT22;38441;52.894;6.040;2023-06-10T05:10:19;17.40;99.90
52531;DHT22;38441;52.894;6.040;2023-06-10T05:12:45;15.70;99.90
52531;DHT22;38441;52.894;6.040;2023-06-10T05:15:11;15.60;99.90
52531;DHT22;38441;52.894;6.040;2023-06-10T05:17:37;17.90;99.90
52531;DHT22;38441;52.894;6.040;2023-06-10T05:20:03;17.40;99.90
52531;DHT22;38441;52.894;6.040;2023-06-10T05:22:29;16.00;99.90
52531;DHT22;38441;52.894;6.040;2023-06-10T05:24:55;18.00;99.90
52531;DHT22;38441;52.894;6.040;2023-06-10T05:27:21;17.60;99.90
52531;DHT22;38441;52.894;6.040;2023-06-10T05:29:47;16.70;99.90
52531;DHT22;38441;52.894;6.040;2023-06-10T05:32:13;18.10;99.90
52531;DHT22;38441;52.894;6.040;2023-06-10T05:34:38;17.10;99.90
52531;DHT22;38441;52.894;6.040;2023-06-10T05:37:04;17.30;99.90
52531;DHT22;38441;52.894;6.040;2023-06-10T05:39:30;16.00;99.90
52531;DHT22;38441;52.894;6.040;2023-06-10T05:41:56;17.20;99.90
52531;DHT22;38441;52.894;6.040;2023-06-10T05:44:24;18.10;99.90
52531;DHT22;38441;52.894;6.040;2023-06-10T05:46:50;17.00;99.90
52531;DHT22;38441;52.894;6.040;2023-06-10T05:49:16;17.70;99.90
52531;DHT22;38441;52.894;6.040;2023-06-10T05:51:41;15.60;99.90
52531;DHT22;38441;52.894;6.040;2023-06-10T05:54:07;16.30;99.90
52531;DHT22;38441;52.894;6.040;2023-06-10T05:56:33;18.10;99.90
52531;DHT22;38441;52.894;6.040;2023-06-10T05:58:59;18.40;99.90
52531;DHT22;38441;52.894;6.040;2023-06-10T06:01:24;16.80;99.90
52531;DHT22;38441;52.894;6.040;2023-06-10T06:03:50;17.90;99.90
52531;DHT22;38441;52.894;6.040;2023-06-10T06:06:16;18.40;99.90
52531;DHT22;38441;52.894;6.040;2023-06-10T06:08:41;19.00;99.90
52531;DHT22;38441;52.894;6.040;2023-06-10T06:11:07;18.10;99.90
52531;DHT22;38441;52.894;6.040;2023-06-10T06:13:33;16.70;99.90
52531;DHT22;38441;52.894;6.040;2023-06-10T06:15:58;19.20;99.90
52531;DHT22;38441;52.894;6.040;2023-06-10T06:18:24;16.90;99.90
52531;DHT22;38441;52.894;6.040;2023-06-10T06:20:50;18.20;99.90
52531;DHT22;38441;52.894;6.040;2023-06-10T06:23:15;17.80;99.90
52531;DHT22;38441;52.894;6.040;2023-06-10T06:25:41;18.50;99.90
52531;DHT22;38441;52.894;6.040;2023-06-10T06:28:07;17.00;99.90
52531;DHT22;38441;52.894;6.040;2023-06-10T06:30:34;19.00;99.90
52531;DHT22;38441;52.894;6.040;2023-06-10T06:33:00;18.20;99.90
52531;DHT22;38441;52.894;6.040;2023-06-10T06:35:26;18.90;99.90
52531;DHT22;38441;52.894;6.040;2023-06-10T06:37:52;19.10;99.90
52531;DHT22;38441;52.894;6.040;2023-06-10T06:40:17;19.30;99.90
52531;DHT22;38441;52.894;6.040;2023-06-10T06:42:44;19.60;99.90
52531;DHT22;38441;52.894;6.040;2023-06-10T06:45:09;16.20;99.90
52531;DHT22;38441;52.894;6.040;2023-06-10T06:47:35;17.60;99.90
52531;DHT22;38441;52.894;6.040;2023-06-10T06:50:01;19.20;99.90
52531;DHT22;38441;52.894;6.040;2023-06-10T06:52:28;20.30;99.90
52531;DHT22;38441;52.894;6.040;2023-06-10T06:54:54;19.70;99.90
52531;DHT22;38441;52.894;6.040;2023-06-10T06:57:19;18.90;99.90
52531;DHT22;38441;52.894;6.040;2023-06-10T06:59:45;19.20;99.90
52531;DHT22;38441;52.894;6.040;2023-06-10T07:05:37;16.70;99.90
52531;DHT22;38441;52.894;6.040;2023-06-10T07:08:05;20.20;99.90
52531;DHT22;38441;52.894;6.040;2023-06-10T07:10:31;19.80;99.90
52531;DHT22;38441;52.894;6.040;2023-06-10T07:12:57;21.20;99.90
52531;DHT22;38441;52.894;6.040;2023-06-10T07:15:22;19.90;99.90
52531;DHT22;38441;52.894;6.040;2023-06-10T07:17:48;20.80;99.90
52531;DHT22;38441;52.894;6.040;2023-06-10T07:20:13;20.50;99.90
52531;DHT22;38441;52.894;6.040;2023-06-10T07:22:41;18.80;99.90
52531;DHT22;38441;52.894;6.040;2023-06-10T07:25:07;20.10;99.90
52531;DHT22;38441;52.894;6.040;2023-06-10T07:27:33;19.20;99.90
52531;DHT22;38441;52.894;6.040;2023-06-10T07:29:58;20.30;99.90
52531;DHT22;38441;52.894;6.040;2023-06-10T07:32:26;21.40;99.90
52531;DHT22;38441;52.894;6.040;2023-06-10T07:34:51;20.30;99.90
52531;DHT22;38441;52.894;6.040;2023-06-10T07:37:18;21.30;99.90
52531;DHT22;38441;52.894;6.040;2023-06-10T07:39:45;21.30;99.90
52531;DHT22;38441;52.894;6.040;2023-06-10T07:42:10;21.00;99.90
52531;DHT22;38441;52.894;6.040;2023-06-10T07:44:36;22.10;99.90
52531;DHT22;38441;52.894;6.040;2023-06-10T07:47:02;21.40;99.90
52531;DHT22;38441;52.894;6.040;2023-06-10T07:49:27;19.90;99.90
52531;DHT22;38441;52.894;6.040;2023-06-10T07:51:54;21.00;99.90
52531;DHT22;38441;52.894;6.040;2023-06-10T07:54:21;22.90;99.90
52531;DHT22;38441;52.894;6.040;2023-06-10T07:56:46;22.90;99.90
52531;DHT22;38441;52.894;6.040;2023-06-10T07:59:13;22.00;99.90
52531;DHT22;38441;52.894;6.040;2023-06-10T08:01:39;23.10;99.90
52531;DHT22;38441;52.894;6.040;2023-06-10T08:04:05;20.60;99.90
52531;DHT22;38441;52.894;6.040;2023-06-10T08:06:31;22.40;99.90
52531;DHT22;38441;52.894;6.040;2023-06-10T08:08:57;21.50;99.90
52531;DHT22;38441;52.894;6.040;2023-06-10T08:11:22;22.50;99.90
52531;DHT22;38441;52.894;6.040;2023-06-10T08:13:48;22.50;99.90
52531;DHT22;38441;52.894;6.040;2023-06-10T08:16:13;22.50;99.90
52531;DHT22;38441;52.894;6.040;2023-06-10T08:18:39;23.20;99.90
52531;DHT22;38441;52.894;6.040;2023-06-10T08:21:05;19.80;99.90
52531;DHT22;38441;52.894;6.040;2023-06-10T08:23:31;22.10;99.90
52531;DHT22;38441;52.894;6.040;2023-06-10T08:25:56;23.20;99.90
52531;DHT22;38441;52.894;6.040;2023-06-10T08:28:23;24.20;99.90
52531;DHT22;38441;52.894;6.040;2023-06-10T08:30:49;21.80;99.90
52531;DHT22;38441;52.894;6.040;2023-06-10T08:33:32;23.40;99.90
52531;DHT22;38441;52.894;6.040;2023-06-10T08:35:58;24.30;99.90
52531;DHT22;38441;52.894;6.040;2023-06-10T08:38:23;23.90;99.90
52531;DHT22;38441;52.894;6.040;2023-06-10T08:40:50;25.50;99.90
52531;DHT22;38441;52.894;6.040;2023-06-10T08:43:44;24.00;99.90
52531;DHT22;38441;52.894;6.040;2023-06-10T08:46:13;22.70;99.90
52531;DHT22;38441;52.894;6.040;2023-06-10T08:48:42;25.30;99.90
52531;DHT22;38441;52.894;6.040;2023-06-10T08:51:10;24.50;99.90
52531;DHT22;38441;52.894;6.040;2023-06-10T08:53:38;24.10;99.90
52531;DHT22;38441;52.894;6.040;2023-06-10T08:56:09;24.70;99.90
52531;DHT22;38441;52.894;6.040;2023-06-10T08:58:35;24.50;99.90
52531;DHT22;38441;52.894;6.040;2023-06-10T09:01:08;25.90;99.90
52531;DHT22;38441;52.894;6.040;2023-06-10T09:03:37;22.80;99.90
52531;DHT22;38441;52.894;6.040;2023-06-10T09:06:04;25.20;99.90
52531;DHT22;38441;52.894;6.040;2023-06-10T09:08:31;23.70;99.90
52531;DHT22;38441;52.894;6.040;2023-06-10T09:10:57;25.70;99.90
52531;DHT22;38441;52.894;6.040;2023-06-10T09:13:23;24.40;99.90
52531;DHT22;38441;52.894;6.040;2023-06-10T09:15:48;25.80;99.90
52531;DHT22;38441;52.894;6.040;2023-06-10T09:18:16;25.20;99.90
52531;DHT22;38441;52.894;6.040;2023-06-10T09:20:43;25.60;99.90
52531;DHT22;38441;52.894;6.040;2023-06-10T09:23:09;25.70;99.90
52531;DHT22;38441;52.894;6.040;2023-06-10T09:25:37;26.20;99.90
52531;DHT22;38441;52.894;6.040;2023-06-10T09:28:03;24.20;99.90
52531;DHT22;38441;52.894;6.040;2023-06-10T09:30:33;25.60;99.90
52531;DHT22;38441;52.894;6.040;2023-06-10T09:33:10;24.50;99.90
52531;DHT22;38441;52.894;6.040;2023-06-10T09:35:36;26.50;99.90
52531;DHT22;38441;52.894;6.040;2023-06-10T09:38:02;25.70;99.90
52531;DHT22;38441;52.894;6.040;2023-06-10T09:40:28;26.30;99.90
52531;DHT22;38441;52.894;6.040;2023-06-10T09:42:59;26.20;99.90
52531;DHT22;38441;52.894;6.040;2023-06-10T09:45:32;27.50;99.90
52531;DHT22;38441;52.894;6.040;2023-06-10T09:47:58;25.40;99.90
52531;DHT22;38441;52.894;6.040;2023-06-10T09:50:24;27.40;99.90
52531;DHT22;38441;52.894;6.040;2023-06-10T09:52:50;26.50;99.90
52531;DHT22;38441;52.894;6.040;2023-06-10T09:55:17;26.40;99.90
52531;DHT22;38441;52.894;6.040;2023-06-10T09:57:43;27.70;99.90
52531;DHT22;38441;52.894;6.040;2023-06-10T10:00:13;25.60;99.20
52531;DHT22;38441;52.894;6.040;2023-06-10T10:02:50;25.50;98.80
52531;DHT22;38441;52.894;6.040;2023-06-10T10:05:17;23.70;98.40
52531;DHT22;38441;52.894;6.040;2023-06-10T10:07:46;26.70;98.40
52531;DHT22;38441;52.894;6.040;2023-06-10T10:10:13;26.90;98.40
52531;DHT22;38441;52.894;6.040;2023-06-10T10:12:40;25.80;97.40
52531;DHT22;38441;52.894;6.040;2023-06-10T10:15:09;28.00;96.20
52531;DHT22;38441;52.894;6.040;2023-06-10T10:17:40;25.90;95.70
52531;DHT22;38441;52.894;6.040;2023-06-10T10:20:08;26.30;95.50
52531;DHT22;38441;52.894;6.040;2023-06-10T10:22:39;26.40;95.90
52531;DHT22;38441;52.894;6.040;2023-06-10T10:25:13;28.00;95.90
52531;DHT22;38441;52.894;6.040;2023-06-10T10:27:48;28.80;94.80
52531;DHT22;38441;52.894;6.040;2023-06-10T10:30:17;26.40;94.20
52531;DHT22;38441;52.894;6.040;2023-06-10T10:33:29;28.10;94.30
52531;DHT22;38441;52.894;6.040;2023-06-10T10:35:57;26.80;92.90
52531;DHT22;38441;52.894;6.040;2023-06-10T10:38:23;28.70;94.80
52531;DHT22;38441;52.894;6.040;2023-06-10T10:40:50;29.00;92.50
52531;DHT22;38441;52.894;6.040;2023-06-10T10:43:16;28.20;91.80
52531;DHT22;38441;52.894;6.040;2023-06-10T10:45:42;28.30;92.80
52531;DHT22;38441;52.894;6.040;2023-06-10T10:48:10;27.30;90.50
52531;DHT22;38441;52.894;6.040;2023-06-10T10:50:37;28.70;91.50
52531;DHT22;38441;52.894;6.040;2023-06-10T10:53:04;26.60;90.90
52531;DHT22;38441;52.894;6.040;2023-06-10T10:55:31;27.60;90.30
52531;DHT22;38441;52.894;6.040;2023-06-10T10:58:06;28.70;91.10
52531;DHT22;38441;52.894;6.040;2023-06-10T11:00:35;29.20;90.90
52531;DHT22;38441;52.894;6.040;2023-06-10T11:08:00;27.60;86.20
52531;DHT22;38441;52.894;6.040;2023-06-10T11:10:37;30.10;90.50
52531;DHT22;38441;52.894;6.040;2023-06-10T11:13:22;27.90;85.40
52531;DHT22;38441;52.894;6.040;2023-06-10T11:15:49;27.70;89.20
52531;DHT22;38441;52.894;6.040;2023-06-10T11:18:38;29.50;87.00
52531;DHT22;38441;52.894;6.040;2023-06-10T11:21:17;29.40;83.90
52531;DHT22;38441;52.894;6.040;2023-06-10T11:23:42;30.60;88.20
52531;DHT22;38441;52.894;6.040;2023-06-10T11:31:20;29.70;83.80
52531;DHT22;38441;52.894;6.040;2023-06-10T11:33:55;29.90;82.90
52531;DHT22;38441;52.894;6.040;2023-06-10T11:36:26;28.30;78.40
52531;DHT22;38441;52.894;6.040;2023-06-10T11:38:55;30.30;82.20
52531;DHT22;38441;52.894;6.040;2023-06-10T11:41:21;29.60;81.10
52531;DHT22;38441;52.894;6.040;2023-06-10T11:43:48;30.80;80.50
52531;DHT22;38441;52.894;6.040;2023-06-10T11:46:14;28.60;80.00
52531;DHT22;38441;52.894;6.040;2023-06-10T11:48:57;29.10;81.00
52531;DHT22;38441;52.894;6.040;2023-06-10T11:51:26;31.10;81.00
52531;DHT22;38441;52.894;6.040;2023-06-10T11:53:53;30.60;77.60
52531;DHT22;38441;52.894;6.040;2023-06-10T11:56:24;30.30;76.90
52531;DHT22;38441;52.894;6.040;2023-06-10T11:58:58;28.40;74.90
52531;DHT22;38441;52.894;6.040;2023-06-10T12:01:30;28.90;71.90
52531;DHT22;38441;52.894;6.040;2023-06-10T12:04:15;30.80;75.60
52531;DHT22;38441;52.894;6.040;2023-06-10T12:06:49;28.30;76.10
52531;DHT22;38441;52.894;6.040;2023-06-10T12:09:18;30.70;76.70
52531;DHT22;38441;52.894;6.040;2023-06-10T12:11:44;29.20;72.50
52531;DHT22;38441;52.894;6.040;2023-06-10T12:14:10;29.40;72.50
52531;DHT22;38441;52.894;6.040;2023-06-10T12:16:36;29.00;74.10
52531;DHT22;38441;52.894;6.040;2023-06-10T12:19:03;30.10;76.00
52531;DHT22;38441;52.894;6.040;2023-06-10T12:21:30;28.60;72.60
52531;DHT22;38441;52.894;6.040;2023-06-10T12:24:14;32.80;75.20
52531;DHT22;38441;52.894;6.040;2023-06-10T12:26:44;31.20;74.20
52531;DHT22;38441;52.894;6.040;2023-06-10T12:29:15;30.30;71.40
52531;DHT22;38441;52.894;6.040;2023-06-10T12:31:59;31.10;70.00
52531;DHT22;38441;52.894;6.040;2023-06-10T12:34:29;29.40;67.10
52531;DHT22;38441;52.894;6.040;2023-06-10T12:36:55;29.20;70.40
52531;DHT22;38441;52.894;6.040;2023-06-10T12:39:21;32.30;74.00
52531;DHT22;38441;52.894;6.040;2023-06-10T12:41:48;29.60;70.00
52531;DHT22;38441;52.894;6.040;2023-06-10T12:44:14;31.60;70.40
52531;DHT22;38441;52.894;6.040;2023-06-10T12:46:39;30.10;70.50
52531;DHT22;38441;52.894;6.040;2023-06-10T12:49:05;31.80;70.40
52531;DHT22;38441;52.894;6.040;2023-06-10T12:51:30;29.90;69.30
52531;DHT22;38441;52.894;6.040;2023-06-10T12:53:56;29.60;70.20
52531;DHT22;38441;52.894;6.040;2023-06-10T12:56:22;29.50;70.10
52531;DHT22;38441;52.894;6.040;2023-06-10T12:58:49;31.10;71.50
52531;DHT22;38441;52.894;6.040;2023-06-10T13:01:14;31.50;71.90
52531;DHT22;38441;52.894;6.040;2023-06-10T13:03:40;32.00;73.00
52531;DHT22;38441;52.894;6.040;2023-06-10T13:06:06;31.90;72.40
52531;DHT22;38441;52.894;6.040;2023-06-10T13:08:32;31.40;70.40
52531;DHT22;38441;52.894;6.040;2023-06-10T13:10:58;30.30;70.10
52531;DHT22;38441;52.894;6.040;2023-06-10T13:13:24;30.10;68.40
52531;DHT22;38441;52.894;6.040;2023-06-10T13:15:51;31.40;68.20
52531;DHT22;38441;52.894;6.040;2023-06-10T13:18:17;32.70;69.60
52531;DHT22;38441;52.894;6.040;2023-06-10T13:20:44;31.50;70.00
52531;DHT22;38441;52.894;6.040;2023-06-10T13:23:10;30.70;71.00
52531;DHT22;38441;52.894;6.040;2023-06-10T13:25:35;30.10;69.30
52531;DHT22;38441;52.894;6.040;2023-06-10T13:28:01;31.70;70.10
52531;DHT22;38441;52.894;6.040;2023-06-10T13:30:28;31.80;70.10
52531;DHT22;38441;52.894;6.040;2023-06-10T13:32:53;32.10;70.30
52531;DHT22;38441;52.894;6.040;2023-06-10T13:35:19;30.00;69.10
52531;DHT22;38441;52.894;6.040;2023-06-10T13:37:44;30.40;69.10
52531;DHT22;38441;52.894;6.040;2023-06-10T13:40:11;32.70;71.50
52531;DHT22;38441;52.894;6.040;2023-06-10T13:42:37;30.20;68.90
52531;DHT22;38441;52.894;6.040;2023-06-10T13:45:04;30.50;71.90
52531;DHT22;38441;52.894;6.040;2023-06-10T13:47:29;30.50;67.10
52531;DHT22;38441;52.894;6.040;2023-06-10T13:49:55;30.70;69.20
52531;DHT22;38441;52.894;6.040;2023-06-10T13:52:21;30.30;68.60
52531;DHT22;38441;52.894;6.040;2023-06-10T13:54:46;32.20;70.80
52531;DHT22;38441;52.894;6.040;2023-06-10T13:57:12;30.50;68.60
52531;DHT22;38441;52.894;6.040;2023-06-10T13:59:37;30.90;70.80
52531;DHT22;38441;52.894;6.040;2023-06-10T14:02:03;29.80;69.10
52531;DHT22;38441;52.894;6.040;2023-06-10T14:04:29;30.60;69.40
52531;DHT22;38441;52.894;6.040;2023-06-10T14:06:55;32.90;70.80
52531;DHT22;38441;52.894;6.040;2023-06-10T14:09:20;30.90;68.60
52531;DHT22;38441;52.894;6.040;2023-06-10T14:11:46;32.10;68.20
52531;DHT22;38441;52.894;6.040;2023-06-10T14:14:13;31.70;66.00
52531;DHT22;38441;52.894;6.040;2023-06-10T14:16:39;33.30;67.60
52531;DHT22;38441;52.894;6.040;2023-06-10T14:19:05;30.30;65.60
52531;DHT22;38441;52.894;6.040;2023-06-10T14:21:30;29.90;66.20
52531;DHT22;38441;52.894;6.040;2023-06-10T14:23:56;31.40;66.10
52531;DHT22;38441;52.894;6.040;2023-06-10T14:26:22;29.80;65.20
52531;DHT22;38441;52.894;6.040;2023-06-10T14:28:48;33.10;68.80
52531;DHT22;38441;52.894;6.040;2023-06-10T14:31:15;32.50;65.10
52531;DHT22;38441;52.894;6.040;2023-06-10T14:33:41;32.00;65.90
52531;DHT22;38441;52.894;6.040;2023-06-10T14:36:09;31.40;67.40
52531;DHT22;38441;52.894;6.040;2023-06-10T14:38:35;30.50;66.30
52531;DHT22;38441;52.894;6.040;2023-06-10T14:41:00;32.30;68.80
52531;DHT22;38441;52.894;6.040;2023-06-10T14:43:26;32.80;70.40
52531;DHT22;38441;52.894;6.040;2023-06-10T14:45:51;30.40;69.50
52531;DHT22;38441;52.894;6.040;2023-06-10T14:48:17;31.70;70.20
52531;DHT22;38441;52.894;6.040;2023-06-10T14:50:43;32.80;71.70
52531;DHT22;38441;52.894;6.040;2023-06-10T14:53:12;32.20;71.60
52531;DHT22;38441;52.894;6.040;2023-06-10T14:55:37;30.40;72.30
52531;DHT22;38441;52.894;6.040;2023-06-10T14:58:03;31.20;72.20
52531;DHT22;38441;52.894;6.040;2023-06-10T15:00:28;31.00;72.90
52531;DHT22;38441;52.894;6.040;2023-06-10T15:02:54;31.40;74.70
52531;DHT22;38441;52.894;6.040;2023-06-10T15:05:22;30.20;72.80
52531;DHT22;38441;52.894;6.040;2023-06-10T15:07:48;32.50;75.20
52531;DHT22;38441;52.894;6.040;2023-06-10T15:10:14;30.20;71.70
52531;DHT22;38441;52.894;6.040;2023-06-10T15:12:41;32.10;72.80
52531;DHT22;38441;52.894;6.040;2023-06-10T15:15:07;29.00;72.30
52531;DHT22;38441;52.894;6.040;2023-06-10T15:17:33;29.20;71.90
52531;DHT22;38441;52.894;6.040;2023-06-10T15:19:58;29.20;71.70
52531;DHT22;38441;52.894;6.040;2023-06-10T15:22:24;30.60;72.70
52531;DHT22;38441;52.894;6.040;2023-06-10T15:24:49;28.70;71.60
52531;DHT22;38441;52.894;6.040;2023-06-10T15:27:15;30.60;73.90
52531;DHT22;38441;52.894;6.040;2023-06-10T15:29:41;30.90;75.40
52531;DHT22;38441;52.894;6.040;2023-06-10T15:32:07;30.50;75.30
52531;DHT22;38441;52.894;6.040;2023-06-10T15:34:32;28.40;72.70
52531;DHT22;38441;52.894;6.040;2023-06-10T15:36:58;30.80;75.70
52531;DHT22;38441;52.894;6.040;2023-06-10T15:39:24;30.00;77.00
52531;DHT22;38441;52.894;6.040;2023-06-10T15:41:51;27.40;74.50
52531;DHT22;38441;52.894;6.040;2023-06-10T15:44:16;30.10;77.50
52531;DHT22;38441;52.894;6.040;2023-06-10T15:46:42;30.00;77.50